createdAt,value
2023-10-19T00:00:22.533Z,19.70
2023-10-19T00:02:54.160Z,21.85
2023-10-19T00:05:21.987Z,22.52
2023-10-19T00:07:58.401Z,17.37
2023-10-19T00:10:30.197Z,20.30
2023-10-19T00:13:06.299Z,21.20
2023-10-19T00:15:41.008Z,25.55
2023-10-19T00:18:18.120Z,16.62
2023-10-19T00:20:53.090Z,19.48
2023-10-19T00:23:32.811Z,19.80
2023-10-19T00:26:06.784Z,22.87
2023-10-19T00:31:09.309Z,24.15
2023-10-19T00:33:40.250Z,18.00
2023-10-19T00:36:09.445Z,24.80
2023-10-19T00:38:48.528Z,21.75
2023-10-19T00:41:32.679Z,20.58
2023-10-19T00:44:13.455Z,18.37
2023-10-19T00:46:44.026Z,18.65
2023-10-19T00:49:18.942Z,22.58
2023-10-19T00:51:51.275Z,22.60
2023-10-19T00:54:53.489Z,26.12
2023-10-19T00:57:21.615Z,18.05
2023-10-19T00:59:50.455Z,22.87
2023-10-19T01:02:18.885Z,21.55
2023-10-19T01:04:51.520Z,20.60
2023-10-19T01:07:28.833Z,21.42
2023-10-19T01:10:01.768Z,18.08
2023-10-19T01:12:36.391Z,20.48
2023-10-19T01:15:29.832Z,18.98
2023-10-19T01:17:59.467Z,21.55
2023-10-19T01:20:31.668Z,18.42
2023-10-19T01:23:08.101Z,21.02
2023-10-19T01:25:55.640Z,19.00
2023-10-19T01:28:46.524Z,23.77
2023-10-19T01:31:18.612Z,20.45
2023-10-19T01:33:47.133Z,17.15
2023-10-19T01:36:37.051Z,19.45
2023-10-19T01:39:11.609Z,19.45
2023-10-19T01:41:42.315Z,18.75
2023-10-19T01:44:14.397Z,17.05
2023-10-19T01:46:44.974Z,19.50
2023-10-19T01:49:13.011Z,21.05
2023-10-19T01:51:41.367Z,21.52
2023-10-19T01:54:10.767Z,20.70
2023-10-19T01:56:39.832Z,21.02
2023-10-19T01:59:10.047Z,19.02
2023-10-19T02:01:39.301Z,23.60
2023-10-19T02:04:10.192Z,21.75
2023-10-19T02:06:47.284Z,19.58
2023-10-19T02:09:19.013Z,21.02
2023-10-19T02:11:48.168Z,22.10
2023-10-19T02:14:19.801Z,20.27
2023-10-19T02:16:53.463Z,21.35
2023-10-19T02:19:22.086Z,19.83
2023-10-19T02:22:00.877Z,23.75
2023-10-19T02:24:28.317Z,20.62
2023-10-19T02:26:58.358Z,19.87
2023-10-19T02:29:28.716Z,25.00
2023-10-19T02:31:57.804Z,26.12
2023-10-19T02:34:25.669Z,21.02
2023-10-19T02:36:53.086Z,22.37
2023-10-19T02:39:22.122Z,20.37
2023-10-19T02:41:50.365Z,20.75
2023-10-19T02:44:20.283Z,24.58
2023-10-19T02:47:00.147Z,22.85
2023-10-19T02:49:30.763Z,26.42
2023-10-19T02:52:05.681Z,25.00
2023-10-19T02:54:36.242Z,25.02
2023-10-19T02:57:07.981Z,25.77
2023-10-19T02:59:35.698Z,27.48
2023-10-19T03:02:15.385Z,25.77
2023-10-19T03:04:43.945Z,23.20
2023-10-19T03:07:14.503Z,26.83
2023-10-19T03:09:49.862Z,22.90
2023-10-19T03:12:18.385Z,26.98
2023-10-19T03:14:49.724Z,23.27
2023-10-19T03:17:17.792Z,23.85
2023-10-19T03:19:45.672Z,27.37
2023-10-19T03:22:13.227Z,26.05
2023-10-19T03:24:44.755Z,22.73
2023-10-19T03:27:17.851Z,22.95
2023-10-19T03:29:47.979Z,21.60
2023-10-19T03:32:23.135Z,26.62
2023-10-19T03:34:56.466Z,23.65
2023-10-19T03:37:26.022Z,26.98
2023-10-19T03:39:57.079Z,25.08
2023-10-19T03:42:41.567Z,21.80
2023-10-19T03:45:14.368Z,25.92
2023-10-19T03:47:44.733Z,24.23
2023-10-19T03:50:32.245Z,26.65
2023-10-19T03:52:59.953Z,27.20
2023-10-19T03:55:30.060Z,23.98
2023-10-19T03:57:57.345Z,26.77
2023-10-19T04:00:29.583Z,26.00
2023-10-19T04:02:59.684Z,22.23
2023-10-19T04:05:29.363Z,26.00
2023-10-19T04:07:59.138Z,16.27
2023-10-19T04:10:35.882Z,21.05
2023-10-19T04:13:04.131Z,18.20
2023-10-19T04:15:35.206Z,15.60
2023-10-19T04:18:09.618Z,26.35
2023-10-19T04:20:50.484Z,22.23
2023-10-19T04:23:17.797Z,22.67
2023-10-19T04:25:48.227Z,23.87
2023-10-19T04:28:15.614Z,23.50
2023-10-19T04:30:42.832Z,27.65
2023-10-19T04:33:11.132Z,19.40
2023-10-19T04:35:38.523Z,22.08
2023-10-19T04:38:09.087Z,22.77
2023-10-19T04:40:37.045Z,22.37
2023-10-19T04:43:07.608Z,22.17
2023-10-19T04:45:34.932Z,20.17
2023-10-19T04:48:05.697Z,21.05
2023-10-19T04:50:33.228Z,25.12
2023-10-19T04:53:00.729Z,18.85
2023-10-19T04:55:28.869Z,20.23
2023-10-19T04:57:56.073Z,25.65
2023-10-19T05:00:25.588Z,21.85
2023-10-19T05:02:53.387Z,21.23
2023-10-19T05:05:20.805Z,18.30
2023-10-19T05:07:48.536Z,23.25
2023-10-19T05:10:16.124Z,24.52
2023-10-19T05:12:43.282Z,20.12
2023-10-19T05:15:11.651Z,19.75
2023-10-19T05:17:40.253Z,21.10
2023-10-19T05:20:08.817Z,21.12
2023-10-19T05:22:36.058Z,22.45
2023-10-19T05:25:05.421Z,22.17
2023-10-19T05:27:33.124Z,20.52
2023-10-19T05:30:01.580Z,20.40
2023-10-19T05:32:31.334Z,23.25
2023-10-19T05:35:00.941Z,19.42
2023-10-19T05:37:30.433Z,23.60
2023-10-19T05:39:57.715Z,20.33
2023-10-19T05:42:24.838Z,21.55
2023-10-19T05:44:52.947Z,25.73
2023-10-19T05:47:20.157Z,19.92
2023-10-19T05:49:47.589Z,22.05
2023-10-19T05:52:15.901Z,20.77
2023-10-19T05:54:43.052Z,22.42
2023-10-19T05:57:10.472Z,23.38
2023-10-19T05:59:37.983Z,21.60
2023-10-19T06:02:08.597Z,27.75
2023-10-19T06:04:37.407Z,26.55
2023-10-19T06:07:06.789Z,24.90
2023-10-19T06:09:34.043Z,23.80
2023-10-19T06:12:02.955Z,22.87
2023-10-19T06:14:31.607Z,27.05
2023-10-19T06:17:00.106Z,25.60
2023-10-19T06:19:27.696Z,22.05
2023-10-19T06:21:54.919Z,22.23
2023-10-19T06:24:22.551Z,23.90
2023-10-19T06:26:50.015Z,22.70
2023-10-19T06:29:17.762Z,26.08
2023-10-19T06:31:45.077Z,25.85
2023-10-19T06:34:12.672Z,22.27
2023-10-19T06:36:40.421Z,24.60
2023-10-19T06:39:09.299Z,26.10
2023-10-19T06:41:36.711Z,27.45
2023-10-19T06:44:04.143Z,26.00
2023-10-19T06:46:32.652Z,21.10
2023-10-19T06:49:01.717Z,23.00
2023-10-19T06:51:30.342Z,22.70
2023-10-19T06:53:59.040Z,29.30
2023-10-19T06:56:27.291Z,28.73
2023-10-19T06:58:56.164Z,21.12
2023-10-19T07:01:27.495Z,21.95
2023-10-19T07:03:55.361Z,24.23
2023-10-19T07:06:22.604Z,24.52
2023-10-19T07:08:49.806Z,23.23
2023-10-19T07:11:17.776Z,28.85
2023-10-19T07:13:45.021Z,22.00
2023-10-19T07:16:13.796Z,23.70
2023-10-19T07:18:41.847Z,20.77
2023-10-19T07:21:10.797Z,23.38
2023-10-19T07:23:41.953Z,24.30
2023-10-19T07:26:09.793Z,23.15
2023-10-19T07:28:39.693Z,23.52
2023-10-19T07:31:13.814Z,28.62
2023-10-19T07:33:46.877Z,24.80
2023-10-19T07:36:15.570Z,22.10
2023-10-19T07:38:43.645Z,20.67
2023-10-19T07:41:11.361Z,24.42
2023-10-19T07:43:39.097Z,21.90
2023-10-19T07:46:09.640Z,20.00
2023-10-19T07:48:37.887Z,20.62
2023-10-19T07:51:05.315Z,22.83
2023-10-19T07:53:33.323Z,18.35
2023-10-19T07:56:01.345Z,20.37
2023-10-19T07:58:29.014Z,23.38
2023-10-19T08:00:58.073Z,28.33
2023-10-19T08:03:26.441Z,24.10
2023-10-19T08:05:54.321Z,26.00
2023-10-19T08:08:21.555Z,20.20
2023-10-19T08:10:49.634Z,23.92
2023-10-19T08:13:16.819Z,21.00
2023-10-19T08:15:44.035Z,18.87
2023-10-19T08:18:13.733Z,16.35
2023-10-19T08:20:50.326Z,16.33
2023-10-19T08:23:24.599Z,19.40
2023-10-19T08:25:57.425Z,17.20
2023-10-19T08:28:25.808Z,17.37
2023-10-19T08:31:01.405Z,19.27
2023-10-19T08:33:49.021Z,17.67
2023-10-19T08:36:20.745Z,20.88
2023-10-19T08:38:48.351Z,17.55
2023-10-19T08:41:21.398Z,20.65
2023-10-19T08:43:52.166Z,16.83
2023-10-19T08:46:19.477Z,23.08
2023-10-19T08:48:48.177Z,18.50
2023-10-19T08:51:15.882Z,18.58
2023-10-19T08:53:45.442Z,14.65
2023-10-19T08:56:13.804Z,18.90
2023-10-19T08:58:42.161Z,16.52
2023-10-19T09:01:11.363Z,18.62
2023-10-19T09:03:39.927Z,17.02
2023-10-19T09:06:07.969Z,16.15
2023-10-19T09:08:40.978Z,19.33
2023-10-19T09:11:09.793Z,18.92
2023-10-19T09:13:49.911Z,19.23
2023-10-19T09:16:18.657Z,20.00
2023-10-19T09:18:47.867Z,18.17
2023-10-19T09:21:25.276Z,18.62
2023-10-19T09:24:05.919Z,17.10
2023-10-19T09:26:33.248Z,13.35
2023-10-19T09:29:01.409Z,14.82
2023-10-19T09:31:30.477Z,15.20
2023-10-19T09:33:59.277Z,19.52
2023-10-19T09:36:28.575Z,15.23
2023-10-19T09:38:58.905Z,19.35
2023-10-19T09:41:30.048Z,17.65
2023-10-19T09:44:03.619Z,21.70
2023-10-19T09:46:33.210Z,15.63
2023-10-19T09:49:00.985Z,15.63
2023-10-19T09:51:29.450Z,13.75
2023-10-19T09:54:02.470Z,24.48
2023-10-19T09:56:54.847Z,17.23
2023-10-19T09:59:43.221Z,18.33
2023-10-19T10:02:15.270Z,16.27
2023-10-19T10:04:47.188Z,17.58
2023-10-19T10:07:25.610Z,16.10
2023-10-19T10:10:00.336Z,12.23
2023-10-19T10:12:46.989Z,14.63
2023-10-19T10:15:17.422Z,17.60
2023-10-19T10:17:50.846Z,25.30
2023-10-19T10:20:30.518Z,19.00
2023-10-19T10:23:17.151Z,16.83
2023-10-19T10:25:49.999Z,19.25
2023-10-19T10:28:18.324Z,14.90
2023-10-19T10:31:08.958Z,17.33
2023-10-19T10:33:46.216Z,18.25
2023-10-19T10:36:15.606Z,18.02
2023-10-19T10:38:42.805Z,21.85
2023-10-19T10:41:13.953Z,19.50
2023-10-19T10:43:58.041Z,16.08
2023-10-19T10:46:28.452Z,19.27
2023-10-19T10:48:56.022Z,21.42
2023-10-19T10:51:29.797Z,17.62
2023-10-19T10:56:26.173Z,17.17
2023-10-19T10:58:53.444Z,22.35
2023-10-19T11:01:31.628Z,18.67
2023-10-19T11:04:10.130Z,22.98
2023-10-19T11:06:50.334Z,17.92
2023-10-19T11:09:25.739Z,19.42
2023-10-19T11:11:55.219Z,18.15
2023-10-19T11:14:26.615Z,19.20
2023-10-19T11:16:54.856Z,18.25
2023-10-19T11:19:22.922Z,21.15
2023-10-19T11:21:58.936Z,18.65
2023-10-19T11:24:29.664Z,17.10
2023-10-19T11:26:56.999Z,22.42
2023-10-19T11:29:25.247Z,23.20
2023-10-19T11:32:03.611Z,21.67
2023-10-19T11:34:31.980Z,18.73
2023-10-19T11:37:01.381Z,26.35
2023-10-19T11:39:30.006Z,19.55
2023-10-19T11:41:57.450Z,18.45
2023-10-19T11:44:24.874Z,25.20
2023-10-19T11:46:52.151Z,19.50
2023-10-19T11:49:25.965Z,26.17
2023-10-19T11:51:54.321Z,22.87
2023-10-19T11:54:21.625Z,23.65
2023-10-19T11:56:50.206Z,21.87
2023-10-19T11:59:17.704Z,18.75
2023-10-19T12:01:45.302Z,25.65
2023-10-19T12:04:12.871Z,21.73
2023-10-19T12:06:40.046Z,26.83
2023-10-19T12:09:16.231Z,25.67
2023-10-19T12:11:49.133Z,22.62
2023-10-19T12:14:16.886Z,20.23
2023-10-19T12:16:44.639Z,19.58
2023-10-19T12:19:11.884Z,23.48
2023-10-19T12:21:42.218Z,20.37
2023-10-19T12:24:09.946Z,26.23
2023-10-19T12:26:37.378Z,23.65
2023-10-19T12:29:08.222Z,20.73
2023-10-19T12:31:36.019Z,17.48
2023-10-19T12:34:03.253Z,17.95
2023-10-19T12:36:33.382Z,22.95
2023-10-19T12:39:02.327Z,17.95
2023-10-19T12:41:30.137Z,20.83
2023-10-19T12:44:03.197Z,21.48
2023-10-19T12:46:31.034Z,18.80
2023-10-19T12:49:00.804Z,20.65
2023-10-19T12:51:27.983Z,24.42
2023-10-19T12:53:56.468Z,18.98
2023-10-19T12:56:30.048Z,20.00
2023-10-19T13:01:25.745Z,20.60
2023-10-19T13:03:53.032Z,25.12
2023-10-19T13:06:21.125Z,22.10
2023-10-19T13:08:48.622Z,21.83
2023-10-19T13:11:17.852Z,24.83
2023-10-19T13:13:47.864Z,27.05
2023-10-19T13:16:16.449Z,26.37
2023-10-19T13:18:44.884Z,36.22
2023-10-19T13:21:23.075Z,23.20
2023-10-19T13:23:50.243Z,21.90
2023-10-19T13:26:18.585Z,27.77
2023-10-19T13:28:46.626Z,25.02
2023-10-19T13:31:17.121Z,31.15
2023-10-19T13:33:47.233Z,24.75
2023-10-19T13:36:15.019Z,26.60
2023-10-19T13:38:42.530Z,27.23
2023-10-19T13:41:12.127Z,24.15
2023-10-19T13:43:43.770Z,27.13
2023-10-19T13:46:31.635Z,21.67
2023-10-19T13:48:59.960Z,24.25
2023-10-19T13:51:27.400Z,23.12
2023-10-19T13:53:54.504Z,26.73
2023-10-19T13:56:21.876Z,27.40
2023-10-19T13:58:49.534Z,30.37
2023-10-19T14:01:18.069Z,28.05
2023-10-19T14:03:46.255Z,23.58
2023-10-19T14:06:14.853Z,26.12
2023-10-19T14:08:42.951Z,26.65
2023-10-19T14:11:10.613Z,24.90
2023-10-19T14:13:38.517Z,30.88
2023-10-19T14:16:09.969Z,22.50
2023-10-19T14:18:37.983Z,23.98
2023-10-19T14:21:14.993Z,20.88
2023-10-19T14:23:43.685Z,23.35
2023-10-19T14:26:11.343Z,28.95
2023-10-19T14:28:39.209Z,27.45
2023-10-19T14:31:08.602Z,24.73
2023-10-19T14:33:37.278Z,26.98
2023-10-19T14:36:05.792Z,30.40
2023-10-19T14:38:33.470Z,30.73
2023-10-19T14:41:01.155Z,30.98
2023-10-19T14:43:30.777Z,28.73
2023-10-19T14:45:58.563Z,25.83
2023-10-19T14:48:26.789Z,23.73
2023-10-19T14:50:58.296Z,28.20
2023-10-19T14:53:26.834Z,31.08
2023-10-19T14:55:58.269Z,28.92
2023-10-19T14:58:30.667Z,28.58
2023-10-19T15:00:59.322Z,27.95
2023-10-19T15:03:27.082Z,26.73
2023-10-19T15:05:54.689Z,27.85
2023-10-19T15:08:25.658Z,26.30
2023-10-19T15:10:55.715Z,25.75
2023-10-19T15:13:23.815Z,24.40
2023-10-19T15:15:52.046Z,30.42
2023-10-19T15:18:20.140Z,25.52
2023-10-19T15:20:47.521Z,25.52
2023-10-19T15:23:15.764Z,26.33
2023-10-19T15:25:43.409Z,28.90
2023-10-19T15:28:12.299Z,25.55
2023-10-19T15:30:39.533Z,27.98
2023-10-19T15:33:08.292Z,26.73
2023-10-19T15:35:37.555Z,26.65
2023-10-19T15:38:05.885Z,30.30
2023-10-19T15:40:35.741Z,29.27
2023-10-19T15:43:03.565Z,25.33
2023-10-19T15:45:35.746Z,23.92
2023-10-19T15:48:03.456Z,26.80
2023-10-19T15:50:31.265Z,26.10
2023-10-19T15:52:58.577Z,34.33
2023-10-19T15:55:27.160Z,30.62
2023-10-19T15:57:55.378Z,26.70
2023-10-19T16:00:23.841Z,30.30
2023-10-19T16:02:52.581Z,28.77
2023-10-19T16:05:20.193Z,27.73
2023-10-19T16:07:48.198Z,29.55
2023-10-19T16:10:16.860Z,27.13
2023-10-19T16:12:45.134Z,35.20
2023-10-19T16:15:15.996Z,31.62
2023-10-19T16:17:48.040Z,30.90
2023-10-19T16:20:16.193Z,28.83
2023-10-19T16:22:45.088Z,28.77
2023-10-19T16:25:12.834Z,29.52
2023-10-19T16:27:40.148Z,29.10
2023-10-19T16:30:13.719Z,32.63
2023-10-19T16:35:11.008Z,31.80
2023-10-19T16:37:39.069Z,29.73
2023-10-19T16:40:10.906Z,30.23
2023-10-19T16:42:40.351Z,26.77
2023-10-19T16:45:07.954Z,29.92
2023-10-19T16:47:36.181Z,29.30
2023-10-19T16:50:03.945Z,29.60
2023-10-19T16:52:49.139Z,31.12
2023-10-19T16:55:16.770Z,30.35
2023-10-19T16:57:47.976Z,28.55
2023-10-19T17:00:15.852Z,31.50
2023-10-19T17:02:43.792Z,31.70
2023-10-19T17:05:11.946Z,32.83
2023-10-19T17:07:41.781Z,30.40
2023-10-19T17:10:10.909Z,29.83
2023-10-19T17:12:38.373Z,30.98
2023-10-19T17:15:06.996Z,32.28
2023-10-19T17:17:34.609Z,35.15
2023-10-19T17:20:01.939Z,37.63
2023-10-19T17:22:29.444Z,32.95
2023-10-19T17:24:59.497Z,33.10
2023-10-19T17:27:26.622Z,36.47
2023-10-19T17:29:53.733Z,29.63
2023-10-19T17:32:21.390Z,34.78
2023-10-19T17:34:48.862Z,35.90
2023-10-19T17:37:17.045Z,36.28
2023-10-19T17:39:44.510Z,32.90
2023-10-19T17:42:11.933Z,31.75
2023-10-19T17:44:39.171Z,31.75
2023-10-19T17:47:09.920Z,33.97
2023-10-19T17:49:37.156Z,36.20
2023-10-19T17:52:04.504Z,37.88
2023-10-19T17:54:32.615Z,34.65
2023-10-19T17:56:59.937Z,38.00
2023-10-19T17:59:27.282Z,40.78
2023-10-19T18:01:55.915Z,39.38
2023-10-19T18:04:25.173Z,36.15
2023-10-19T18:06:52.755Z,40.05
2023-10-19T18:09:21.633Z,40.03
2023-10-19T18:11:49.543Z,34.90
2023-10-19T18:14:19.933Z,36.22
2023-10-19T18:16:53.347Z,39.17
2023-10-19T18:19:26.199Z,35.72
2023-10-19T18:21:56.692Z,35.55
2023-10-19T18:24:26.487Z,35.38
2023-10-19T18:26:53.649Z,38.47
2023-10-19T18:29:20.820Z,37.00
2023-10-19T18:31:50.965Z,39.10
2023-10-19T18:34:20.381Z,33.13
2023-10-19T18:36:54.180Z,36.70
2023-10-19T18:39:21.535Z,37.08
2023-10-19T18:41:49.399Z,34.75
2023-10-19T18:44:19.269Z,34.97
2023-10-19T18:46:46.637Z,40.22
2023-10-19T18:49:14.484Z,35.65
2023-10-19T18:51:42.336Z,36.55
2023-10-19T18:54:09.526Z,36.30
2023-10-19T18:56:37.253Z,34.30
2023-10-19T18:59:05.041Z,33.92
2023-10-19T19:01:32.233Z,37.67
2023-10-19T19:03:59.742Z,35.45
2023-10-19T19:06:27.377Z,38.75
2023-10-19T19:08:58.006Z,39.03
2023-10-19T19:11:26.175Z,42.03
2023-10-19T19:13:53.901Z,41.97
2023-10-19T19:16:22.422Z,44.92
2023-10-19T19:18:50.371Z,45.90
2023-10-19T19:21:18.082Z,56.83
2023-10-19T19:23:47.140Z,38.05
2023-10-19T19:26:18.143Z,52.25
2023-10-19T19:28:48.212Z,61.85
2023-10-19T19:31:22.557Z,55.20
2023-10-19T19:33:50.656Z,57.03
2023-10-19T19:36:18.526Z,42.78
2023-10-19T19:38:46.648Z,50.60
2023-10-19T19:41:17.490Z,46.03
2023-10-19T19:43:45.135Z,55.95
2023-10-19T19:46:15.226Z,50.40
2023-10-19T19:48:43.093Z,50.47
2023-10-19T19:51:10.943Z,54.35
2023-10-19T19:53:43.605Z,51.60
2023-10-19T19:56:11.126Z,47.85
2023-10-19T19:58:38.423Z,44.72
2023-10-19T20:01:05.566Z,45.00
2023-10-19T20:03:33.325Z,46.10
2023-10-19T20:06:01.370Z,39.25
2023-10-19T20:08:28.682Z,44.05
2023-10-19T20:10:56.841Z,44.15
2023-10-19T20:13:24.485Z,43.55
2023-10-19T20:15:54.199Z,37.78
2023-10-19T20:18:22.385Z,43.22
2023-10-19T20:20:50.084Z,39.30
2023-10-19T20:23:21.325Z,48.33
2023-10-19T20:25:49.685Z,44.78
2023-10-19T20:28:18.767Z,43.60
2023-10-19T20:30:47.880Z,43.40
2023-10-19T20:33:15.374Z,48.45
2023-10-19T20:35:42.718Z,49.92
2023-10-19T20:38:11.634Z,46.40
2023-10-19T20:40:42.563Z,47.08
2023-10-19T20:43:11.054Z,43.85
2023-10-19T20:45:38.959Z,40.63
2023-10-19T20:48:08.830Z,43.55
2023-10-19T20:50:36.342Z,43.83
2023-10-19T20:53:04.505Z,44.20
2023-10-19T20:55:32.238Z,45.25
2023-10-19T20:57:59.576Z,45.10
2023-10-19T21:00:27.603Z,38.92
2023-10-19T21:02:55.390Z,44.13
2023-10-19T21:05:23.626Z,43.90
2023-10-19T21:07:52.905Z,43.80
2023-10-19T21:10:21.249Z,42.35
2023-10-19T21:12:48.901Z,43.45
2023-10-19T21:15:19.387Z,43.10
2023-10-19T21:17:49.763Z,39.83
2023-10-19T21:20:20.792Z,38.25
2023-10-19T21:22:50.243Z,39.33
2023-10-19T21:25:19.985Z,44.08
2023-10-19T21:27:51.040Z,40.00
2023-10-19T21:30:18.783Z,43.13
2023-10-19T21:32:47.751Z,43.38
2023-10-19T21:35:16.277Z,39.28
2023-10-19T21:37:45.064Z,41.25
2023-10-19T21:40:13.425Z,41.33
2023-10-19T21:42:43.116Z,37.88
2023-10-19T21:45:13.176Z,36.75
2023-10-19T21:47:41.044Z,36.35
2023-10-19T21:50:09.042Z,35.58
2023-10-19T21:52:37.090Z,38.55
2023-10-19T21:55:05.764Z,35.70
2023-10-19T21:57:33.502Z,38.58
2023-10-19T22:00:01.093Z,34.58
2023-10-19T22:02:28.560Z,30.85
2023-10-19T22:05:01.671Z,29.40
2023-10-19T22:07:34.398Z,33.55
2023-10-19T22:10:02.361Z,35.72
2023-10-19T22:12:33.684Z,33.33
2023-10-19T22:15:01.324Z,33.78
2023-10-19T22:17:28.915Z,31.20
2023-10-19T22:19:57.104Z,34.20
2023-10-19T22:22:25.612Z,36.05
2023-10-19T22:24:53.579Z,29.73
2023-10-19T22:27:20.748Z,31.80
2023-10-19T22:29:48.383Z,32.80
2023-10-19T22:32:15.841Z,31.40
2023-10-19T22:34:43.479Z,30.77
2023-10-19T22:37:11.872Z,33.28
2023-10-19T22:39:40.561Z,29.45
2023-10-19T22:42:08.176Z,29.52
2023-10-19T22:44:35.893Z,28.48
2023-10-19T22:47:04.888Z,30.08
2023-10-19T22:49:32.444Z,30.30
2023-10-19T22:52:00.165Z,28.15
2023-10-19T22:54:27.606Z,29.50
2023-10-19T22:56:57.496Z,26.00
2023-10-19T22:59:25.344Z,34.33
2023-10-19T23:01:56.015Z,29.77
2023-10-19T23:04:23.238Z,27.35
2023-10-19T23:06:52.716Z,29.75
2023-10-19T23:09:29.569Z,29.27
2023-10-19T23:12:09.445Z,28.55
2023-10-19T23:14:37.060Z,28.85
2023-10-19T23:17:10.279Z,27.17
2023-10-19T23:19:42.525Z,30.00
2023-10-19T23:22:09.953Z,30.83
2023-10-19T23:24:37.426Z,32.40
2023-10-19T23:27:05.124Z,27.48
2023-10-19T23:29:33.717Z,24.95
2023-10-19T23:32:01.471Z,28.35
2023-10-19T23:34:35.918Z,26.98
2023-10-19T23:37:03.850Z,32.67
2023-10-19T23:39:35.679Z,26.10
2023-10-19T23:42:03.386Z,27.25
2023-10-19T23:44:32.093Z,30.02
2023-10-19T23:47:00.832Z,29.08
2023-10-19T23:49:28.981Z,28.55
2023-10-19T23:51:56.978Z,29.00
2023-10-19T23:54:26.585Z,29.67
2023-10-19T23:56:54.233Z,27.87
2023-10-19T23:59:22.156Z,29.00
